createdAt,value
2023-05-03T00:00:23.872Z,11.18
2023-05-03T00:02:54.073Z,10.97
2023-05-03T00:05:22.258Z,10.97
2023-05-03T00:07:50.333Z,10.88
2023-05-03T00:10:18.370Z,11.13
2023-05-03T00:12:47.629Z,11.12
2023-05-03T00:15:15.562Z,11.17
2023-05-03T00:17:43.498Z,10.99
2023-05-03T00:20:13.207Z,11.07
2023-05-03T00:22:41.192Z,11.16
2023-05-03T00:25:10.194Z,11.12
2023-05-03T00:27:38.543Z,11.27
2023-05-03T00:30:09.676Z,10.95
2023-05-03T00:32:37.826Z,10.89
2023-05-03T00:35:06.800Z,10.66
2023-05-03T00:37:34.755Z,10.83
2023-05-03T00:40:02.951Z,10.78
2023-05-03T00:42:31.065Z,10.98
2023-05-03T00:44:58.978Z,10.98
2023-05-03T00:47:28.307Z,11.04
2023-05-03T00:49:56.371Z,10.82
2023-05-03T00:52:24.367Z,10.77
2023-05-03T00:54:53.019Z,10.74
2023-05-03T00:57:22.855Z,10.59
2023-05-03T00:59:51.091Z,10.69
2023-05-03T01:02:19.014Z,10.58
2023-05-03T01:04:48.409Z,10.21
2023-05-03T01:07:24.945Z,10.07
2023-05-03T01:10:01.684Z,10.36
2023-05-03T01:12:45.276Z,10.52
2023-05-03T01:15:18.437Z,10.49
2023-05-03T01:17:51.262Z,10.43
2023-05-03T01:20:25.837Z,10.55
2023-05-03T01:23:02.967Z,10.51
2023-05-03T01:25:32.821Z,10.64
2023-05-03T01:28:01.627Z,10.77
2023-05-03T01:30:31.929Z,10.83
2023-05-03T01:33:06.135Z,10.79
2023-05-03T01:35:37.951Z,10.72
2023-05-03T01:38:06.491Z,10.56
2023-05-03T01:40:43.318Z,10.52
2023-05-03T01:43:13.399Z,10.53
2023-05-03T01:45:42.073Z,10.50
2023-05-03T01:48:16.131Z,10.46
2023-05-03T01:50:44.299Z,10.35
2023-05-03T01:53:12.260Z,10.13
2023-05-03T01:55:41.556Z,10.18
2023-05-03T01:58:09.465Z,10.34
2023-05-03T02:00:37.379Z,10.43
2023-05-03T02:03:05.554Z,10.22
2023-05-03T02:05:33.485Z,10.24
2023-05-03T02:08:01.410Z,10.35
2023-05-03T02:10:29.304Z,10.03
2023-05-03T02:12:58.833Z,10.07
2023-05-03T02:15:26.739Z,9.81
2023-05-03T02:17:55.751Z,9.61
2023-05-03T02:20:23.774Z,9.71
2023-05-03T02:22:51.732Z,9.95
2023-05-03T02:25:19.628Z,9.89
2023-05-03T02:27:47.520Z,9.57
2023-05-03T02:30:17.050Z,9.52
2023-05-03T02:32:45.039Z,9.72
2023-05-03T02:35:13.154Z,9.70
2023-05-03T02:37:41.072Z,9.60
2023-05-03T02:40:11.140Z,9.33
2023-05-03T02:42:39.334Z,8.56
2023-05-03T02:45:08.324Z,8.89
2023-05-03T02:47:37.728Z,9.04
2023-05-03T02:50:06.619Z,9.01
2023-05-03T02:52:34.659Z,9.03
2023-05-03T02:55:02.655Z,9.06
2023-05-03T02:57:30.858Z,9.04
2023-05-03T02:59:58.797Z,8.94
2023-05-03T03:02:26.783Z,8.92
2023-05-03T03:04:56.054Z,8.86
2023-05-03T03:07:23.934Z,8.73
2023-05-03T03:09:51.842Z,8.67
2023-05-03T03:12:19.750Z,8.62
2023-05-03T03:14:47.626Z,8.59
2023-05-03T03:17:15.553Z,8.46
2023-05-03T03:19:43.485Z,8.44
2023-05-03T03:22:12.860Z,8.46
2023-05-03T03:24:40.795Z,8.55
2023-05-03T03:27:08.704Z,8.58
2023-05-03T03:29:36.684Z,8.61
2023-05-03T03:32:04.742Z,8.58
2023-05-03T03:34:33.157Z,8.51
2023-05-03T03:37:01.136Z,8.55
2023-05-03T03:39:30.454Z,8.58
2023-05-03T03:41:58.376Z,8.57
2023-05-03T03:44:26.330Z,8.50
2023-05-03T03:46:54.240Z,8.48
2023-05-03T03:49:22.149Z,8.65
2023-05-03T03:51:50.040Z,8.66
2023-05-03T03:54:17.995Z,8.70
2023-05-03T03:56:47.308Z,8.96
2023-05-03T03:59:15.229Z,9.09
2023-05-03T04:01:43.170Z,9.22
2023-05-03T04:04:11.251Z,9.52
2023-05-03T04:06:39.233Z,9.63
2023-05-03T04:09:07.161Z,9.64
2023-05-03T04:11:35.086Z,9.68
2023-05-03T04:14:04.602Z,9.81
2023-05-03T04:16:32.652Z,9.71
2023-05-03T04:19:02.167Z,9.92
2023-05-03T04:21:30.065Z,10.07
2023-05-03T04:23:58.071Z,10.28
2023-05-03T04:26:31.661Z,10.25
2023-05-03T04:29:00.155Z,10.23
2023-05-03T04:31:30.168Z,10.31
2023-05-03T04:33:58.115Z,10.40
2023-05-03T04:36:26.733Z,10.58
2023-05-03T04:38:54.634Z,10.62
2023-05-03T04:41:22.961Z,10.52
2023-05-03T04:43:50.893Z,10.61
2023-05-03T04:46:19.390Z,10.79
2023-05-03T04:48:48.718Z,10.90
2023-05-03T04:51:16.640Z,10.76
2023-05-03T04:53:44.529Z,10.88
2023-05-03T04:56:12.493Z,10.96
2023-05-03T04:58:40.472Z,11.05
2023-05-03T05:01:08.416Z,11.15
2023-05-03T05:03:36.524Z,11.30
2023-05-03T05:06:07.041Z,11.22
2023-05-03T05:08:34.957Z,11.07
2023-05-03T05:11:03.968Z,10.87
2023-05-03T05:13:32.233Z,11.13
2023-05-03T05:16:00.162Z,11.38
2023-05-03T05:18:28.157Z,11.47
2023-05-03T05:20:56.587Z,11.33
2023-05-03T05:23:25.897Z,11.45
2023-05-03T05:25:54.202Z,11.54
2023-05-03T05:28:22.113Z,11.61
2023-05-03T05:30:50.304Z,11.57
2023-05-03T05:33:19.362Z,11.90
2023-05-03T05:35:48.534Z,11.81
2023-05-03T05:38:18.594Z,11.97
2023-05-03T05:40:47.876Z,12.10
2023-05-03T05:43:15.773Z,12.36
2023-05-03T05:45:43.712Z,12.18
2023-05-03T05:48:11.616Z,11.99
2023-05-03T05:50:39.615Z,12.01
2023-05-03T05:53:09.125Z,12.09
2023-05-03T05:55:37.135Z,12.40
2023-05-03T05:58:06.610Z,12.48
2023-05-03T06:00:34.781Z,12.51
2023-05-03T06:03:02.736Z,12.26
2023-05-03T06:05:30.763Z,12.35
2023-05-03T06:07:58.719Z,12.53
2023-05-03T06:10:26.652Z,12.70
2023-05-03T06:12:54.557Z,12.34
2023-05-03T06:15:23.875Z,12.52
2023-05-03T06:17:51.823Z,12.69
2023-05-03T06:20:19.898Z,13.00
2023-05-03T06:22:47.817Z,13.18
2023-05-03T06:25:17.837Z,13.08
2023-05-03T06:27:46.085Z,13.27
2023-05-03T06:30:14.518Z,13.57
2023-05-03T06:32:44.159Z,13.65
2023-05-03T06:35:12.635Z,13.50
2023-05-03T06:37:40.609Z,13.88
2023-05-03T06:40:09.495Z,14.14
2023-05-03T06:42:37.458Z,14.27
2023-05-03T06:45:06.221Z,14.25
2023-05-03T06:47:34.164Z,14.20
2023-05-03T06:50:03.844Z,14.53
2023-05-03T06:52:32.248Z,14.78
2023-05-03T06:55:00.202Z,15.26
2023-05-03T06:57:28.963Z,15.53
2023-05-03T06:59:57.038Z,15.32
2023-05-03T07:02:26.085Z,15.34
2023-05-03T07:04:54.165Z,15.08
2023-05-03T07:07:23.588Z,15.07
2023-05-03T07:09:51.671Z,15.26
2023-05-03T07:12:19.591Z,15.05
2023-05-03T07:14:47.494Z,15.08
2023-05-03T07:17:15.927Z,15.07
2023-05-03T07:19:43.822Z,15.31
2023-05-03T07:22:13.285Z,15.57
2023-05-03T07:24:42.715Z,15.79
2023-05-03T07:27:10.836Z,16.16
2023-05-03T07:29:38.859Z,16.74
2023-05-03T07:32:07.219Z,16.99
2023-05-03T07:34:35.117Z,17.12
2023-05-03T07:37:03.144Z,17.20
2023-05-03T07:39:31.149Z,17.55
2023-05-03T07:42:00.451Z,17.19
2023-05-03T07:44:28.354Z,17.41
2023-05-03T07:46:56.582Z,17.68
2023-05-03T07:49:24.462Z,17.86
2023-05-03T07:51:52.580Z,18.03
2023-05-03T07:54:20.465Z,18.61
2023-05-03T07:56:48.669Z,19.13
2023-05-03T07:59:18.020Z,19.53
2023-05-03T08:01:45.918Z,19.72
2023-05-03T08:04:14.139Z,19.30
2023-05-03T08:06:43.155Z,19.32
2023-05-03T08:09:11.729Z,18.93
2023-05-03T08:11:40.623Z,19.33
2023-05-03T08:14:10.356Z,19.38
2023-05-03T08:16:40.018Z,19.61
2023-05-03T08:19:08.138Z,19.95
2023-05-03T08:21:36.106Z,19.98
2023-05-03T08:24:06.089Z,20.53
2023-05-03T08:26:34.312Z,20.97
2023-05-03T08:29:03.612Z,20.96
2023-05-03T08:31:31.798Z,21.37
2023-05-03T08:34:01.686Z,21.20
2023-05-03T08:36:29.602Z,21.27
2023-05-03T08:38:57.526Z,21.15
2023-05-03T08:41:30.812Z,21.60
2023-05-03T08:44:00.354Z,21.62
2023-05-03T08:46:30.819Z,21.71
2023-05-03T08:49:01.170Z,21.26
2023-05-03T08:51:29.119Z,21.45
2023-05-03T08:53:57.034Z,21.08
2023-05-03T08:56:30.369Z,21.24
2023-05-03T08:59:04.907Z,21.42
2023-05-03T09:01:33.039Z,21.15
2023-05-03T09:04:03.409Z,20.76
2023-05-03T09:06:33.376Z,20.61
2023-05-03T09:09:02.335Z,20.68
2023-05-03T09:11:32.354Z,20.47
2023-05-03T09:14:10.272Z,20.29
2023-05-03T09:16:39.129Z,20.37
2023-05-03T09:19:11.892Z,20.51
2023-05-03T09:21:40.483Z,20.59
2023-05-03T09:24:15.656Z,20.46
2023-05-03T09:26:45.543Z,20.29
2023-05-03T09:29:29.431Z,20.38
2023-05-03T09:32:01.539Z,20.37
2023-05-03T09:34:31.854Z,20.22
2023-05-03T09:37:00.191Z,20.20
2023-05-03T09:39:28.660Z,20.00
2023-05-03T09:41:57.006Z,20.08
2023-05-03T09:44:41.736Z,19.97
2023-05-03T09:47:10.036Z,19.79
2023-05-03T09:49:40.084Z,19.70
2023-05-03T09:52:09.598Z,19.61
2023-05-03T09:54:37.589Z,19.76
2023-05-03T09:57:06.660Z,19.88
2023-05-03T09:59:35.694Z,20.01
2023-05-03T10:02:06.060Z,19.81
2023-05-03T10:04:41.783Z,19.88
2023-05-03T10:07:14.333Z,20.07
2023-05-03T10:09:45.528Z,19.92
2023-05-03T10:12:16.815Z,20.06
2023-05-03T10:14:46.793Z,20.08
2023-05-03T10:17:20.012Z,20.25
2023-05-03T10:19:54.146Z,20.36
2023-05-03T10:22:22.137Z,20.27
2023-05-03T10:25:09.810Z,20.16
2023-05-03T10:27:52.508Z,20.25
2023-05-03T10:30:32.489Z,20.43
2023-05-03T10:33:01.248Z,20.66
2023-05-03T10:35:31.441Z,20.90
2023-05-03T10:37:59.609Z,20.89
2023-05-03T10:40:43.083Z,20.85
2023-05-03T10:43:44.720Z,20.54
2023-05-03T10:46:35.012Z,20.68
2023-05-03T10:49:19.908Z,20.48
2023-05-03T10:51:49.584Z,20.23
2023-05-03T10:54:19.551Z,20.18
2023-05-03T10:56:57.259Z,20.23
2023-05-03T10:59:26.111Z,19.87
2023-05-03T11:01:55.360Z,20.19
2023-05-03T11:04:35.175Z,20.29
2023-05-03T11:07:04.748Z,20.48
2023-05-03T11:09:34.436Z,20.82
2023-05-03T11:12:06.363Z,21.19
2023-05-03T11:14:34.290Z,21.03
2023-05-03T11:17:02.469Z,21.08
2023-05-03T11:19:30.828Z,21.50
2023-05-03T11:21:59.018Z,21.98
2023-05-03T11:24:28.518Z,22.32
2023-05-03T11:26:57.240Z,22.51
2023-05-03T11:29:26.202Z,22.53
2023-05-03T11:31:54.256Z,22.40
2023-05-03T11:34:22.230Z,22.06
2023-05-03T11:36:51.230Z,21.47
2023-05-03T11:39:20.817Z,21.45
2023-05-03T11:42:04.617Z,21.13
2023-05-03T11:44:32.916Z,21.15
2023-05-03T11:47:01.535Z,21.28
2023-05-03T11:49:29.725Z,21.02
2023-05-03T11:51:57.951Z,20.89
2023-05-03T11:54:27.960Z,20.76
2023-05-03T11:57:00.975Z,20.60
2023-05-03T11:59:38.280Z,20.46
2023-05-03T12:02:09.519Z,20.60
2023-05-03T12:04:41.622Z,20.39
2023-05-03T12:07:11.555Z,20.61
2023-05-03T12:09:41.076Z,20.30
2023-05-03T12:12:11.175Z,20.29
2023-05-03T12:15:11.272Z,20.28
2023-05-03T12:17:44.903Z,20.50
2023-05-03T12:22:51.361Z,20.81
2023-05-03T12:25:20.796Z,21.00
2023-05-03T12:28:01.934Z,21.32
2023-05-03T12:30:40.750Z,21.14
2023-05-03T12:33:10.448Z,21.06
2023-05-03T12:35:40.786Z,20.79
2023-05-03T12:38:10.482Z,20.62
2023-05-03T12:40:39.729Z,20.82
2023-05-03T12:43:08.094Z,20.92
2023-05-03T12:45:39.943Z,20.96
2023-05-03T12:48:10.492Z,21.26
2023-05-03T12:50:39.386Z,21.36
2023-05-03T12:53:09.912Z,21.50
2023-05-03T12:55:42.660Z,21.91
2023-05-03T13:01:03.206Z,21.32
2023-05-03T13:03:34.578Z,21.69
2023-05-03T13:06:13.312Z,22.20
2023-05-03T13:08:49.403Z,22.52
2023-05-03T13:11:19.329Z,22.66
2023-05-03T13:13:47.694Z,22.70
2023-05-03T13:16:16.098Z,22.43
2023-05-03T13:18:45.549Z,22.18
2023-05-03T13:21:13.699Z,21.81
2023-05-03T13:23:41.647Z,21.67
2023-05-03T13:26:09.593Z,21.64
2023-05-03T13:28:37.531Z,21.89
2023-05-03T13:31:05.627Z,22.00
2023-05-03T13:33:37.992Z,22.09
2023-05-03T13:36:08.057Z,21.86
2023-05-03T13:38:36.220Z,21.79
2023-05-03T13:41:07.899Z,21.96
2023-05-03T13:43:35.963Z,22.01
2023-05-03T13:46:04.150Z,22.29
2023-05-03T13:48:32.676Z,22.41
2023-05-03T13:51:00.735Z,22.28
2023-05-03T13:53:30.019Z,22.19
2023-05-03T13:55:58.131Z,22.26
2023-05-03T13:58:26.063Z,22.16
2023-05-03T14:00:53.988Z,22.08
2023-05-03T14:03:22.076Z,22.01
2023-05-03T14:05:50.102Z,22.03
2023-05-03T14:08:18.112Z,21.94
2023-05-03T14:10:47.478Z,21.91
2023-05-03T14:13:15.525Z,21.55
2023-05-03T14:15:45.423Z,21.61
2023-05-03T14:18:13.566Z,21.75
2023-05-03T14:20:41.594Z,21.60
2023-05-03T14:23:09.497Z,21.54
2023-05-03T14:25:37.581Z,21.40
2023-05-03T14:28:06.941Z,21.04
2023-05-03T14:30:35.041Z,20.93
2023-05-03T14:33:03.057Z,21.30
2023-05-03T14:35:31.123Z,21.03
2023-05-03T14:37:59.055Z,21.21
2023-05-03T14:40:27.141Z,21.39
2023-05-03T14:42:55.055Z,21.28
2023-05-03T14:45:24.749Z,21.31
2023-05-03T14:47:52.719Z,21.00
2023-05-03T14:50:20.990Z,20.80
2023-05-03T14:52:48.934Z,20.81
2023-05-03T14:55:17.498Z,20.84
2023-05-03T14:57:45.410Z,20.95
2023-05-03T15:00:15.171Z,20.80
2023-05-03T15:02:44.751Z,20.63
2023-05-03T15:05:13.316Z,20.42
2023-05-03T15:07:41.570Z,20.21
2023-05-03T15:10:10.257Z,20.21
2023-05-03T15:12:39.534Z,20.19
2023-05-03T15:15:09.683Z,20.17
2023-05-03T15:17:37.617Z,20.01
2023-05-03T15:20:10.389Z,20.13
2023-05-03T15:22:38.283Z,20.06
2023-05-03T15:25:06.783Z,19.94
2023-05-03T15:27:34.763Z,20.04
2023-05-03T15:30:03.215Z,19.82
2023-05-03T15:32:31.452Z,19.66
2023-05-03T15:34:59.454Z,19.67
2023-05-03T15:37:37.065Z,19.51
2023-05-03T15:40:06.424Z,19.56
2023-05-03T15:42:34.566Z,19.39
2023-05-03T15:45:02.519Z,19.53
2023-05-03T15:47:30.699Z,19.39
2023-05-03T15:49:58.906Z,19.34
2023-05-03T15:52:26.816Z,19.09
2023-05-03T15:54:56.906Z,19.28
2023-05-03T15:57:25.057Z,19.21
2023-05-03T15:59:54.129Z,19.06
2023-05-03T16:02:22.130Z,19.01
2023-05-03T16:04:50.979Z,18.84
2023-05-03T16:07:19.332Z,18.39
2023-05-03T16:09:48.343Z,18.38
2023-05-03T16:12:17.595Z,18.57
2023-05-03T16:14:45.512Z,18.57
2023-05-03T16:17:13.608Z,18.49
2023-05-03T16:19:41.545Z,18.44
2023-05-03T16:22:09.450Z,18.29
2023-05-03T16:24:37.565Z,18.19
2023-05-03T16:27:06.538Z,18.35
2023-05-03T16:29:37.080Z,18.28
2023-05-03T16:32:06.390Z,18.19
2023-05-03T16:34:34.386Z,18.18
2023-05-03T16:37:02.298Z,17.92
2023-05-03T16:39:30.539Z,17.86
2023-05-03T16:41:58.467Z,17.70
2023-05-03T16:44:26.363Z,17.75
2023-05-03T16:46:55.659Z,17.63
2023-05-03T16:49:23.625Z,17.68
2023-05-03T16:51:51.801Z,17.55
2023-05-03T16:54:19.696Z,17.61
2023-05-03T16:56:47.586Z,17.36
2023-05-03T16:59:16.907Z,17.39
2023-05-03T17:01:44.965Z,17.47
2023-05-03T17:04:15.402Z,17.24
2023-05-03T17:06:43.373Z,17.40
2023-05-03T17:09:11.465Z,17.23
2023-05-03T17:11:39.393Z,17.09
2023-05-03T17:14:07.326Z,16.91
2023-05-03T17:16:35.237Z,17.10
2023-05-03T17:19:03.157Z,17.19
2023-05-03T17:21:32.582Z,17.13
2023-05-03T17:24:00.488Z,17.01
2023-05-03T17:26:28.505Z,16.81
2023-05-03T17:28:56.691Z,16.75
2023-05-03T17:31:24.652Z,16.59
2023-05-03T17:33:52.701Z,16.64
2023-05-03T17:36:22.330Z,16.35
2023-05-03T17:38:51.956Z,16.43
2023-05-03T17:41:19.934Z,16.35
2023-05-03T17:43:48.741Z,16.24
2023-05-03T17:46:17.811Z,16.32
2023-05-03T17:48:47.788Z,16.35
2023-05-03T17:51:16.089Z,16.08
2023-05-03T17:53:44.083Z,16.38
2023-05-03T17:56:17.166Z,16.22
2023-05-03T17:58:46.681Z,16.08
2023-05-03T18:01:15.824Z,16.09
2023-05-03T18:03:44.159Z,16.35
2023-05-03T18:06:14.204Z,16.16
2023-05-03T18:08:42.625Z,16.16
2023-05-03T18:11:10.729Z,16.11
2023-05-03T18:13:41.379Z,16.05
2023-05-03T18:16:10.029Z,15.94
2023-05-03T18:18:38.515Z,15.73
2023-05-03T18:21:06.892Z,15.78
2023-05-03T18:23:35.348Z,15.67
2023-05-03T18:26:03.848Z,15.71
2023-05-03T18:28:31.847Z,15.63
2023-05-03T18:31:01.179Z,15.60
2023-05-03T18:33:29.110Z,15.45
2023-05-03T18:35:57.045Z,15.34
2023-05-03T18:38:24.986Z,15.17
2023-05-03T18:40:54.237Z,15.08
2023-05-03T18:43:22.162Z,15.20
2023-05-03T18:45:50.092Z,15.17
2023-05-03T18:48:19.443Z,14.96
2023-05-03T18:50:47.401Z,14.76
2023-05-03T18:53:15.297Z,14.74
2023-05-03T18:55:43.287Z,14.39
2023-05-03T18:58:11.212Z,14.32
2023-05-03T19:00:39.135Z,14.21
2023-05-03T19:03:07.088Z,14.00
2023-05-03T19:05:36.366Z,14.07
2023-05-03T19:08:04.730Z,14.15
2023-05-03T19:10:32.648Z,14.10
2023-05-03T19:13:00.708Z,13.97
2023-05-03T19:15:28.691Z,14.16
2023-05-03T19:17:56.932Z,14.07
2023-05-03T19:20:25.120Z,14.09
2023-05-03T19:22:54.429Z,14.00
2023-05-03T19:25:22.368Z,13.96
2023-05-03T19:27:50.865Z,13.96
2023-05-03T19:30:19.382Z,13.91
2023-05-03T19:32:47.772Z,13.91
2023-05-03T19:35:15.720Z,14.03
2023-05-03T19:37:44.596Z,13.73
2023-05-03T19:40:15.142Z,13.56
2023-05-03T19:42:43.106Z,13.48
2023-05-03T19:45:11.677Z,13.42
2023-05-03T19:47:39.581Z,13.43
2023-05-03T19:50:08.474Z,13.19
2023-05-03T19:52:36.555Z,13.29
2023-05-03T19:55:07.207Z,13.13
2023-05-03T19:57:36.717Z,13.13
2023-05-03T20:00:07.201Z,13.03
2023-05-03T20:02:36.801Z,12.86
2023-05-03T20:05:05.170Z,12.84
2023-05-03T20:07:34.077Z,12.81
2023-05-03T20:10:02.330Z,12.75
2023-05-03T20:12:30.682Z,12.53
2023-05-03T20:15:00.025Z,12.53
2023-05-03T20:17:28.016Z,12.50
2023-05-03T20:19:55.972Z,12.38
2023-05-03T20:22:23.932Z,12.43
2023-05-03T20:24:52.527Z,12.33
2023-05-03T20:27:21.198Z,12.26
2023-05-03T20:29:49.086Z,12.09
2023-05-03T20:32:18.382Z,12.32
2023-05-03T20:34:46.986Z,12.38
2023-05-03T20:37:14.906Z,12.41
2023-05-03T20:39:42.828Z,12.49
2023-05-03T20:42:10.743Z,12.36
2023-05-03T20:44:38.651Z,12.43
2023-05-03T20:47:06.616Z,12.54
2023-05-03T20:49:37.096Z,12.42
2023-05-03T20:52:05.335Z,12.56
2023-05-03T20:54:33.254Z,12.50
2023-05-03T20:57:02.237Z,12.59
2023-05-03T20:59:30.323Z,12.76
2023-05-03T21:01:58.238Z,12.66
2023-05-03T21:04:26.623Z,12.55
2023-05-03T21:06:55.952Z,12.71
2023-05-03T21:09:24.202Z,12.68
2023-05-03T21:11:52.142Z,12.80
2023-05-03T21:14:20.056Z,12.65
2023-05-03T21:16:48.103Z,12.59
2023-05-03T21:19:16.112Z,12.61
2023-05-03T21:21:44.017Z,12.49
2023-05-03T21:24:13.329Z,12.29
2023-05-03T21:26:41.308Z,12.33
2023-05-03T21:29:09.515Z,12.03
2023-05-03T21:31:37.718Z,11.98
2023-05-03T21:34:05.853Z,12.03
2023-05-03T21:36:33.843Z,11.90
2023-05-03T21:39:01.827Z,11.69
2023-05-03T21:41:31.131Z,11.65
2023-05-03T21:43:59.076Z,11.56
2023-05-03T21:46:27.098Z,11.52
2023-05-03T21:48:55.266Z,11.57
2023-05-03T21:51:25.026Z,11.50
2023-05-03T21:53:53.614Z,11.64
2023-05-03T21:56:21.782Z,11.46
2023-05-03T21:58:51.111Z,11.57
2023-05-03T22:01:21.691Z,11.50
2023-05-03T22:03:50.223Z,11.46
2023-05-03T22:06:18.442Z,11.39
2023-05-03T22:08:46.353Z,11.24
2023-05-03T22:11:14.494Z,11.31
2023-05-03T22:13:54.929Z,11.28
2023-05-03T22:16:31.887Z,11.13
2023-05-03T22:18:59.848Z,11.04
2023-05-03T22:21:27.811Z,11.22
2023-05-03T22:23:55.731Z,11.20
2023-05-03T22:26:24.402Z,11.23
2023-05-03T22:28:52.400Z,11.26
2023-05-03T22:31:20.469Z,11.31
2023-05-03T22:33:49.775Z,11.43
2023-05-03T22:36:17.728Z,11.43
2023-05-03T22:38:45.911Z,11.47
2023-05-03T22:41:13.861Z,11.42
2023-05-03T22:43:41.842Z,11.38
2023-05-03T22:46:09.764Z,11.49
2023-05-03T22:48:37.700Z,11.50
2023-05-03T22:51:07.394Z,11.52
2023-05-03T22:53:35.329Z,11.43
2023-05-03T22:56:05.683Z,11.61
2023-05-03T22:58:33.670Z,11.70
2023-05-03T23:01:01.697Z,11.65
2023-05-03T23:03:30.169Z,11.63
2023-05-03T23:05:58.139Z,11.57
2023-05-03T23:08:27.583Z,11.57
2023-05-03T23:10:59.227Z,11.59
2023-05-03T23:13:27.742Z,11.44
2023-05-03T23:15:56.074Z,11.41
2023-05-03T23:18:24.216Z,11.20
2023-05-03T23:20:52.371Z,11.38
2023-05-03T23:23:20.645Z,11.29
2023-05-03T23:25:50.110Z,11.58
2023-05-03T23:28:18.265Z,11.70
2023-05-03T23:30:46.995Z,11.75
2023-05-03T23:33:15.202Z,11.70
2023-05-03T23:35:43.670Z,11.63
2023-05-03T23:38:11.668Z,11.70
2023-05-03T23:40:39.620Z,11.64
2023-05-03T23:43:09.078Z,11.52
2023-05-03T23:45:37.055Z,11.53
2023-05-03T23:48:05.571Z,11.46
2023-05-03T23:50:33.605Z,11.48
2023-05-03T23:53:01.710Z,11.42
2023-05-03T23:55:29.733Z,11.53
2023-05-03T23:57:57.735Z,11.54
